BKP101 VTBS-VTSM
Flight info
| Callsign | BKP101 |
|---|---|
| Flight time | 0h 47m |
| Altitude | 35000 |
| Route | KASNI1E KASNI M757 MABKO W33 UPNEP |
| Aircraft | A319/M-SDE3FGHIRWY/LB1 |
Departure
| Time | 2026-04-10 21:58 |
|---|---|
| Airport | Suvarnabhumi Airport (VTBS) |
Arrival
| Time | 2026-04-10 22:46 |
|---|---|
| Airport | Samui International Airport (VTSM) |
| Time | Latitude | Longitude | Altitude | Speed | Heading |
|---|---|---|---|---|---|
| 2026-04-10 21:22 | 13.68946 | 100.75577 | 13 ft | 0 kts | 14° |
| 2026-04-10 21:28 | 13.68942 | 100.75576 | 13 ft | 0 kts | 14° |
| 2026-04-10 21:28 | 13.69276 | 100.75546 | 13 ft | 0 kts | 284° |
| 2026-04-10 21:46 | 13.69275 | 100.75549 | 13 ft | 3 kts | 284° |
| 2026-04-10 21:46 | 13.69268 | 100.75575 | 14 ft | 4 kts | 289° |
| 2026-04-10 21:46 | 13.69258 | 100.75601 | 16 ft | 4 kts | 298° |
| 2026-04-10 21:47 | 13.69243 | 100.75622 | 17 ft | 4 kts | 329° |
| 2026-04-10 21:47 | 13.69227 | 100.75627 | 16 ft | 1 kts | 15° |
| 2026-04-10 21:47 | 13.69224 | 100.75626 | 16 ft | 0 kts | 15° |
| 2026-04-10 21:50 | 13.69234 | 100.75629 | 15 ft | 3 kts | 15° |
| 2026-04-10 21:50 | 13.69260 | 100.75636 | 14 ft | 4 kts | 15° |
| 2026-04-10 21:51 | 13.69289 | 100.75644 | 13 ft | 0 kts | 14° |
| 2026-04-10 21:51 | 13.69293 | 100.75645 | 13 ft | 2 kts | 14° |
| 2026-04-10 21:51 | 13.69319 | 100.75652 | 13 ft | 4 kts | 14° |
| 2026-04-10 21:51 | 13.69359 | 100.75662 | 13 ft | 8 kts | 15° |
| 2026-04-10 21:52 | 13.69422 | 100.75678 | 13 ft | 11 kts | 14° |
| 2026-04-10 21:52 | 13.69501 | 100.75700 | 15 ft | 13 kts | 18° |
| 2026-04-10 21:52 | 13.69545 | 100.75761 | 13 ft | 10 kts | 96° |
| 2026-04-10 21:52 | 13.69525 | 100.75841 | 13 ft | 13 kts | 104° |
| 2026-04-10 21:53 | 13.69500 | 100.75939 | 13 ft | 12 kts | 104° |
| 2026-04-10 21:53 | 13.69437 | 100.75985 | 13 ft | 13 kts | 199° |
| 2026-04-10 21:53 | 13.69340 | 100.75957 | 14 ft | 16 kts | 193° |
| 2026-04-10 21:53 | 13.69271 | 100.75939 | 13 ft | 10 kts | 195° |
| 2026-04-10 21:54 | 13.69207 | 100.75965 | 13 ft | 10 kts | 123° |
| 2026-04-10 21:54 | 13.69199 | 100.75995 | 12 ft | 0 kts | 105° |
| 2026-04-10 21:54 | 13.69198 | 100.75997 | 12 ft | 1 kts | 105° |
| 2026-04-10 21:54 | 13.69198 | 100.76000 | 12 ft | 0 kts | 105° |
| 2026-04-10 21:55 | 13.69197 | 100.76002 | 12 ft | 1 kts | 105° |
| 2026-04-10 21:55 | 13.69191 | 100.76023 | 12 ft | 5 kts | 108° |
| 2026-04-10 21:55 | 13.69170 | 100.76060 | 13 ft | 8 kts | 132° |
| 2026-04-10 21:55 | 13.69113 | 100.76080 | 12 ft | 10 kts | 174° |
| 2026-04-10 21:56 | 13.69058 | 100.76075 | 13 ft | 0 kts | 195° |
| 2026-04-10 21:56 | 13.69058 | 100.76074 | 13 ft | 0 kts | 195° |
| 2026-04-10 21:56 | 13.69055 | 100.76074 | 14 ft | 0 kts | 195° |
| 2026-04-10 21:57 | 13.69053 | 100.76073 | 14 ft | 0 kts | 195° |
| 2026-04-10 21:57 | 13.69020 | 100.76064 | 13 ft | 22 kts | 194° |
| 2026-04-10 21:57 | 13.68672 | 100.75973 | 16 ft | 81 kts | 194° |
| 2026-04-10 21:58 | 13.67942 | 100.75782 | 11 ft | 136 kts | 194° |
| 2026-04-10 21:58 | 13.66896 | 100.75505 | 278 ft | 161 kts | 194° |
| 2026-04-10 21:58 | 13.65803 | 100.75220 | 940 ft | 163 kts | 192° |
| 2026-04-10 21:58 | 13.64669 | 100.75106 | 1663 ft | 165 kts | 181° |
| 2026-04-10 21:59 | 13.63513 | 100.75124 | 2287 ft | 171 kts | 182° |
| 2026-04-10 21:59 | 13.62246 | 100.75142 | 2608 ft | 195 kts | 182° |
| 2026-04-10 21:59 | 13.60803 | 100.75159 | 3033 ft | 218 kts | 181° |
| 2026-04-10 21:59 | 13.59224 | 100.75403 | 3543 ft | 243 kts | 171° |
| 2026-04-10 22:00 | 13.57516 | 100.75865 | 4173 ft | 261 kts | 166° |
| 2026-04-10 22:00 | 13.55760 | 100.76428 | 5097 ft | 267 kts | 164° |
| 2026-04-10 22:00 | 13.53973 | 100.77012 | 6019 ft | 273 kts | 164° |
| 2026-04-10 22:00 | 13.52140 | 100.77594 | 6865 ft | 279 kts | 164° |
| 2026-04-10 22:01 | 13.50265 | 100.78168 | 7737 ft | 283 kts | 165° |
| 2026-04-10 22:01 | 13.48358 | 100.78737 | 8617 ft | 288 kts | 165° |
| 2026-04-10 22:01 | 13.46417 | 100.79305 | 9500 ft | 292 kts | 165° |
| 2026-04-10 22:01 | 13.44446 | 100.79872 | 10236 ft | 301 kts | 166° |
| 2026-04-10 22:02 | 13.42351 | 100.80469 | 10533 ft | 323 kts | 166° |
| 2026-04-10 22:02 | 13.40149 | 100.81095 | 11094 ft | 332 kts | 166° |
| 2026-04-10 22:02 | 13.37857 | 100.81503 | 11755 ft | 337 kts | 178° |
| 2026-04-10 22:02 | 13.35500 | 100.81524 | 12443 ft | 341 kts | 181° |
| 2026-04-10 22:03 | 13.33109 | 100.81519 | 13126 ft | 346 kts | 181° |
| 2026-04-10 22:03 | 13.30689 | 100.81461 | 13772 ft | 350 kts | 187° |
| 2026-04-10 22:03 | 13.28308 | 100.80945 | 14357 ft | 352 kts | 200° |
| 2026-04-10 22:03 | 13.26076 | 100.79900 | 14959 ft | 354 kts | 212° |
| 2026-04-10 22:04 | 13.24003 | 100.78520 | 15564 ft | 357 kts | 214° |
| 2026-04-10 22:04 | 13.21919 | 100.77119 | 16168 ft | 360 kts | 214° |
| 2026-04-10 22:04 | 13.19813 | 100.75706 | 16771 ft | 363 kts | 214° |
| 2026-04-10 22:04 | 13.17687 | 100.74280 | 17371 ft | 367 kts | 213° |
| 2026-04-10 22:05 | 13.15536 | 100.72839 | 17961 ft | 371 kts | 213° |
| 2026-04-10 22:05 | 13.13367 | 100.71386 | 18487 ft | 374 kts | 213° |
| 2026-04-10 22:05 | 13.11175 | 100.69920 | 19018 ft | 377 kts | 213° |
| 2026-04-10 22:05 | 13.08841 | 100.68676 | 19541 ft | 380 kts | 201° |
| 2026-04-10 22:06 | 13.06290 | 100.67936 | 20075 ft | 383 kts | 190° |
| 2026-04-10 22:06 | 13.03627 | 100.67713 | 20620 ft | 386 kts | 181° |
| 2026-04-10 22:06 | 13.00932 | 100.67646 | 21143 ft | 389 kts | 181° |
| 2026-04-10 22:06 | 12.98219 | 100.67575 | 21669 ft | 391 kts | 182° |
| 2026-04-10 22:07 | 12.95488 | 100.67501 | 22180 ft | 394 kts | 182° |
| 2026-04-10 22:07 | 12.92772 | 100.67429 | 22687 ft | 397 kts | 182° |
| 2026-04-10 22:07 | 12.89964 | 100.67356 | 23182 ft | 400 kts | 181° |
| 2026-04-10 22:08 | 12.84380 | 100.67213 | 24048 ft | 407 kts | 181° |
| 2026-04-10 22:08 | 12.81542 | 100.67137 | 24451 ft | 410 kts | 181° |
| 2026-04-10 22:08 | 12.78641 | 100.67061 | 24850 ft | 413 kts | 181° |
| 2026-04-10 22:08 | 12.75797 | 100.66986 | 25233 ft | 416 kts | 181° |
| 2026-04-10 22:09 | 12.72904 | 100.66912 | 25620 ft | 419 kts | 180° |
| 2026-04-10 22:09 | 12.69968 | 100.66838 | 26012 ft | 422 kts | 180° |
| 2026-04-10 22:09 | 12.67025 | 100.66765 | 26390 ft | 425 kts | 180° |
| 2026-04-10 22:09 | 12.64062 | 100.66688 | 26754 ft | 427 kts | 180° |
| 2026-04-10 22:10 | 12.61089 | 100.66610 | 26864 ft | 425 kts | 180° |
| 2026-04-10 22:10 | 12.58185 | 100.66532 | 26888 ft | 410 kts | 180° |
| 2026-04-10 22:10 | 12.55382 | 100.66457 | 26895 ft | 396 kts | 180° |
| 2026-04-10 22:10 | 12.52667 | 100.66385 | 26893 ft | 385 kts | 179° |
| 2026-04-10 22:11 | 12.50002 | 100.66315 | 26892 ft | 381 kts | 179° |
| 2026-04-10 22:11 | 12.47354 | 100.66244 | 26892 ft | 380 kts | 179° |
| 2026-04-10 22:11 | 12.44712 | 100.66173 | 26893 ft | 379 kts | 179° |
| 2026-04-10 22:11 | 12.42075 | 100.66102 | 26892 ft | 379 kts | 179° |
| 2026-04-10 22:12 | 12.39436 | 100.66034 | 26891 ft | 379 kts | 179° |
| 2026-04-10 22:12 | 12.36799 | 100.65968 | 26890 ft | 379 kts | 180° |
| 2026-04-10 22:12 | 12.34166 | 100.65902 | 26890 ft | 379 kts | 180° |
| 2026-04-10 22:12 | 12.31532 | 100.65835 | 26890 ft | 378 kts | 179° |
| 2026-04-10 22:13 | 12.28900 | 100.65767 | 26888 ft | 379 kts | 179° |
| 2026-04-10 22:13 | 12.26265 | 100.65699 | 26884 ft | 379 kts | 180° |
| 2026-04-10 22:13 | 12.23636 | 100.65633 | 26883 ft | 379 kts | 179° |
| 2026-04-10 22:13 | 12.21000 | 100.65565 | 26882 ft | 379 kts | 179° |
| 2026-04-10 22:14 | 12.18362 | 100.65496 | 26887 ft | 379 kts | 179° |
| 2026-04-10 22:14 | 12.15736 | 100.65426 | 26887 ft | 379 kts | 179° |
| 2026-04-10 22:14 | 12.13093 | 100.65356 | 26887 ft | 379 kts | 179° |
| 2026-04-10 22:14 | 12.10460 | 100.65286 | 26883 ft | 379 kts | 179° |
| 2026-04-10 22:15 | 12.07827 | 100.65215 | 26883 ft | 378 kts | 179° |
| 2026-04-10 22:15 | 12.05194 | 100.65146 | 26883 ft | 378 kts | 180° |
| 2026-04-10 22:15 | 12.02565 | 100.65078 | 26882 ft | 378 kts | 179° |
| 2026-04-10 22:15 | 11.99935 | 100.65013 | 26881 ft | 378 kts | 179° |
| 2026-04-10 22:16 | 11.98158 | 100.64970 | 26881 ft | 378 kts | 179° |
| 2026-04-10 22:16 | 11.95526 | 100.64904 | 26881 ft | 378 kts | 179° |
| 2026-04-10 22:16 | 11.92896 | 100.64838 | 26881 ft | 378 kts | 179° |
| 2026-04-10 22:16 | 11.90262 | 100.64772 | 26881 ft | 379 kts | 179° |
| 2026-04-10 22:17 | 11.87628 | 100.64707 | 26881 ft | 379 kts | 179° |
| 2026-04-10 22:17 | 11.84994 | 100.64643 | 26882 ft | 379 kts | 179° |
| 2026-04-10 22:17 | 11.82397 | 100.64577 | 26882 ft | 379 kts | 179° |
| 2026-04-10 22:17 | 11.79761 | 100.64508 | 26881 ft | 379 kts | 179° |
| 2026-04-10 22:18 | 11.77128 | 100.64441 | 26880 ft | 379 kts | 179° |
| 2026-04-10 22:18 | 11.74492 | 100.64376 | 26880 ft | 379 kts | 179° |
| 2026-04-10 22:18 | 11.71854 | 100.64309 | 26880 ft | 379 kts | 179° |
| 2026-04-10 22:18 | 11.69221 | 100.64242 | 26879 ft | 379 kts | 179° |
| 2026-04-10 22:19 | 11.66584 | 100.64172 | 26881 ft | 379 kts | 179° |
| 2026-04-10 22:19 | 11.63946 | 100.64104 | 26881 ft | 379 kts | 179° |
| 2026-04-10 22:19 | 11.61309 | 100.64037 | 26881 ft | 379 kts | 179° |
| 2026-04-10 22:19 | 11.58673 | 100.63971 | 26880 ft | 379 kts | 179° |
| 2026-04-10 22:20 | 11.56035 | 100.63905 | 26881 ft | 379 kts | 179° |
| 2026-04-10 22:20 | 11.53400 | 100.63840 | 26881 ft | 379 kts | 179° |
| 2026-04-10 22:20 | 11.50761 | 100.63775 | 26881 ft | 379 kts | 179° |
| 2026-04-10 22:20 | 11.48126 | 100.63707 | 26882 ft | 379 kts | 179° |
| 2026-04-10 22:21 | 11.45491 | 100.63639 | 26881 ft | 379 kts | 179° |
| 2026-04-10 22:21 | 11.42856 | 100.63572 | 26881 ft | 379 kts | 179° |
| 2026-04-10 22:21 | 11.40218 | 100.63505 | 26882 ft | 379 kts | 179° |
| 2026-04-10 22:21 | 11.37582 | 100.63439 | 26881 ft | 379 kts | 179° |
| 2026-04-10 22:22 | 11.34945 | 100.63371 | 26884 ft | 379 kts | 179° |
| 2026-04-10 22:22 | 11.32309 | 100.63305 | 26885 ft | 379 kts | 179° |
| 2026-04-10 22:22 | 11.29670 | 100.63240 | 26886 ft | 379 kts | 179° |
| 2026-04-10 22:22 | 11.27032 | 100.63174 | 26886 ft | 379 kts | 179° |
| 2026-04-10 22:23 | 11.24397 | 100.63109 | 26886 ft | 379 kts | 179° |
| 2026-04-10 22:23 | 11.21761 | 100.63043 | 26887 ft | 379 kts | 179° |
| 2026-04-10 22:23 | 11.19121 | 100.62975 | 26888 ft | 379 kts | 179° |
| 2026-04-10 22:23 | 11.16485 | 100.62907 | 26888 ft | 379 kts | 179° |
| 2026-04-10 22:24 | 11.13850 | 100.62843 | 26888 ft | 379 kts | 179° |
| 2026-04-10 22:24 | 11.11209 | 100.62778 | 26890 ft | 379 kts | 179° |
| 2026-04-10 22:24 | 11.08570 | 100.62712 | 26889 ft | 379 kts | 179° |
| 2026-04-10 22:24 | 11.05929 | 100.62643 | 26889 ft | 380 kts | 179° |
| 2026-04-10 22:25 | 11.03322 | 100.62576 | 26890 ft | 380 kts | 179° |
| 2026-04-10 22:25 | 11.00646 | 100.62510 | 26890 ft | 380 kts | 179° |
| 2026-04-10 22:25 | 10.98005 | 100.62447 | 26891 ft | 380 kts | 179° |
| 2026-04-10 22:25 | 10.95361 | 100.62385 | 26892 ft | 380 kts | 179° |
| 2026-04-10 22:26 | 10.92717 | 100.62323 | 26895 ft | 380 kts | 179° |
| 2026-04-10 22:26 | 10.90077 | 100.62258 | 26896 ft | 380 kts | 179° |
| 2026-04-10 22:26 | 10.87433 | 100.62188 | 26897 ft | 380 kts | 179° |
| 2026-04-10 22:26 | 10.84766 | 100.61853 | 26837 ft | 393 kts | 194° |
| 2026-04-10 22:27 | 10.82208 | 100.60848 | 26284 ft | 394 kts | 202° |
| 2026-04-10 22:27 | 10.79711 | 100.59713 | 25561 ft | 392 kts | 203° |
| 2026-04-10 22:27 | 10.77208 | 100.58541 | 24551 ft | 399 kts | 204° |
| 2026-04-10 22:27 | 10.74691 | 100.57346 | 23776 ft | 399 kts | 204° |
| 2026-04-10 22:28 | 10.72190 | 100.56159 | 23002 ft | 394 kts | 204° |
| 2026-04-10 22:28 | 10.69715 | 100.54992 | 22190 ft | 390 kts | 203° |
| 2026-04-10 22:28 | 10.67271 | 100.53850 | 21404 ft | 384 kts | 203° |
| 2026-04-10 22:28 | 10.64856 | 100.52730 | 20632 ft | 379 kts | 203° |
| 2026-04-10 22:29 | 10.62473 | 100.51630 | 19859 ft | 374 kts | 203° |
| 2026-04-10 22:29 | 10.60117 | 100.50545 | 19143 ft | 369 kts | 202° |
| 2026-04-10 22:29 | 10.57813 | 100.49486 | 18689 ft | 357 kts | 203° |
| 2026-04-10 22:29 | 10.55592 | 100.48463 | 18267 ft | 345 kts | 203° |
| 2026-04-10 22:30 | 10.53442 | 100.47469 | 17820 ft | 334 kts | 203° |
| 2026-04-10 22:30 | 10.51361 | 100.46506 | 17432 ft | 323 kts | 203° |
| 2026-04-10 22:30 | 10.49359 | 100.45579 | 17051 ft | 320 kts | 203° |
| 2026-04-10 22:30 | 10.47337 | 100.44645 | 16674 ft | 319 kts | 203° |
| 2026-04-10 22:31 | 10.45318 | 100.43716 | 16287 ft | 318 kts | 203° |
| 2026-04-10 22:31 | 10.43303 | 100.42788 | 15904 ft | 317 kts | 204° |
| 2026-04-10 22:31 | 10.41295 | 100.41862 | 15523 ft | 317 kts | 204° |
| 2026-04-10 22:31 | 10.39290 | 100.40935 | 15150 ft | 316 kts | 204° |
| 2026-04-10 22:32 | 10.37292 | 100.40011 | 14771 ft | 316 kts | 204° |
| 2026-04-10 22:32 | 10.35295 | 100.39090 | 14394 ft | 315 kts | 204° |
| 2026-04-10 22:32 | 10.33298 | 100.38170 | 14016 ft | 315 kts | 204° |
| 2026-04-10 22:32 | 10.31307 | 100.37254 | 13635 ft | 315 kts | 205° |
| 2026-04-10 22:33 | 10.29315 | 100.36337 | 13225 ft | 313 kts | 205° |
| 2026-04-10 22:33 | 10.27335 | 100.35422 | 12849 ft | 311 kts | 205° |
| 2026-04-10 22:33 | 10.25367 | 100.34513 | 12471 ft | 310 kts | 205° |
| 2026-04-10 22:33 | 10.23411 | 100.33611 | 12097 ft | 308 kts | 205° |
| 2026-04-10 22:34 | 10.21465 | 100.32716 | 11720 ft | 306 kts | 204° |
| 2026-04-10 22:34 | 10.19527 | 100.31824 | 11351 ft | 305 kts | 205° |
| 2026-04-10 22:34 | 10.17598 | 100.30935 | 10988 ft | 304 kts | 205° |
| 2026-04-10 22:34 | 10.15690 | 100.30055 | 10704 ft | 299 kts | 205° |
| 2026-04-10 22:35 | 10.13800 | 100.29182 | 10358 ft | 298 kts | 205° |
| 2026-04-10 22:35 | 10.11915 | 100.28311 | 9997 ft | 297 kts | 204° |
| 2026-04-10 22:35 | 10.10034 | 100.27444 | 9617 ft | 297 kts | 204° |
| 2026-04-10 22:35 | 10.08159 | 100.26580 | 9235 ft | 295 kts | 204° |
| 2026-04-10 22:36 | 10.06295 | 100.25722 | 8862 ft | 293 kts | 204° |
| 2026-04-10 22:36 | 10.04448 | 100.24869 | 8506 ft | 291 kts | 204° |
| 2026-04-10 22:36 | 10.02605 | 100.24017 | 8146 ft | 290 kts | 203° |
| 2026-04-10 22:36 | 10.00810 | 100.23186 | 7794 ft | 288 kts | 203° |
| 2026-04-10 22:37 | 9.98961 | 100.22331 | 7430 ft | 287 kts | 203° |
| 2026-04-10 22:37 | 9.97149 | 100.21497 | 7073 ft | 285 kts | 203° |
| 2026-04-10 22:37 | 9.95342 | 100.20668 | 6716 ft | 285 kts | 202° |
| 2026-04-10 22:37 | 9.93540 | 100.19842 | 6360 ft | 284 kts | 203° |
| 2026-04-10 22:38 | 9.91745 | 100.19017 | 5986 ft | 283 kts | 203° |
| 2026-04-10 22:38 | 9.89961 | 100.18194 | 5627 ft | 281 kts | 203° |
| 2026-04-10 22:38 | 9.88185 | 100.17376 | 5271 ft | 279 kts | 203° |
| 2026-04-10 22:38 | 9.86422 | 100.16564 | 4921 ft | 278 kts | 204° |
| 2026-04-10 22:39 | 9.84664 | 100.15756 | 4570 ft | 276 kts | 204° |
| 2026-04-10 22:39 | 9.82920 | 100.14955 | 4217 ft | 275 kts | 205° |
| 2026-04-10 22:39 | 9.81184 | 100.14156 | 3868 ft | 273 kts | 205° |
| 2026-04-10 22:39 | 9.79489 | 100.13376 | 3517 ft | 258 kts | 205° |
| 2026-04-10 22:40 | 9.77943 | 100.12668 | 3218 ft | 241 kts | 206° |
| 2026-04-10 22:40 | 9.76405 | 100.11962 | 2912 ft | 244 kts | 206° |
| 2026-04-10 22:40 | 9.74870 | 100.11256 | 2619 ft | 241 kts | 206° |
| 2026-04-10 22:40 | 9.73345 | 100.10555 | 2348 ft | 240 kts | 206° |
| 2026-04-10 22:41 | 9.71841 | 100.09863 | 2112 ft | 230 kts | 206° |
| 2026-04-10 22:41 | 9.70457 | 100.09230 | 1995 ft | 207 kts | 206° |
| 2026-04-10 22:41 | 9.69215 | 100.08662 | 1926 ft | 184 kts | 207° |
| 2026-04-10 22:41 | 9.68124 | 100.08165 | 1842 ft | 158 kts | 206° |
| 2026-04-10 22:42 | 9.67200 | 100.07744 | 1769 ft | 137 kts | 206° |
| 2026-04-10 22:42 | 9.66364 | 100.07359 | 1707 ft | 128 kts | 206° |
| 2026-04-10 22:42 | 9.65555 | 100.06987 | 1657 ft | 127 kts | 206° |
| 2026-04-10 22:42 | 9.64757 | 100.06620 | 1597 ft | 126 kts | 206° |
| 2026-04-10 22:43 | 9.63958 | 100.06252 | 1550 ft | 126 kts | 206° |
| 2026-04-10 22:43 | 9.63140 | 100.05922 | 1477 ft | 127 kts | 199° |
| 2026-04-10 22:43 | 9.62277 | 100.05740 | 1426 ft | 127 kts | 190° |
| 2026-04-10 22:43 | 9.61388 | 100.05680 | 1314 ft | 128 kts | 182° |
| 2026-04-10 22:44 | 9.60497 | 100.05741 | 1102 ft | 129 kts | 176° |
| 2026-04-10 22:44 | 9.59602 | 100.05823 | 898 ft | 129 kts | 178° |
| 2026-04-10 22:44 | 9.58714 | 100.05894 | 735 ft | 128 kts | 176° |
| 2026-04-10 22:44 | 9.57829 | 100.05979 | 555 ft | 128 kts | 175° |
| 2026-04-10 22:45 | 9.56943 | 100.06063 | 373 ft | 128 kts | 174° |
| 2026-04-10 22:45 | 9.56060 | 100.06140 | 189 ft | 127 kts | 176° |
| 2026-04-10 22:45 | 9.55182 | 100.06209 | 53 ft | 121 kts | 174° |
| 2026-04-10 22:45 | 9.54530 | 100.06271 | 53 ft | 55 kts | 174° |
| 2026-04-10 22:46 | 9.54345 | 100.06289 | 52 ft | 21 kts | 174° |
| 2026-04-10 22:46 | 9.54189 | 100.06304 | 53 ft | 23 kts | 174° |
| 2026-04-10 22:46 | 9.54110 | 100.06320 | 53 ft | 2 kts | 51° |
| 2026-04-10 22:46 | 9.54142 | 100.06308 | 53 ft | 12 kts | 349° |
| 2026-04-10 22:47 | 9.54246 | 100.06299 | 51 ft | 18 kts | 355° |
| 2026-04-10 22:47 | 9.54381 | 100.06285 | 53 ft | 21 kts | 354° |
| 2026-04-10 22:47 | 9.54538 | 100.06270 | 51 ft | 24 kts | 354° |
| 2026-04-10 22:47 | 9.54593 | 100.06265 | 53 ft | 25 kts | 354° |
| 2026-04-10 22:48 | 9.54626 | 100.06262 | 53 ft | 25 kts | 354° |